Latest Coastal Weather Observations for Cape Otway

IDV60701

Issued at 7:22 pm EST Thursday 17 August 2017 (issued every 10 minutes, with the page automatically refreshed every 10 minutes)

About coastal observations | Map of coastal stations | Coastal observations for VIC | Marine services | Other Formats
Station Details ID: 090015 Name: CAPE OTWAY LIGHTHOUSE Lat: -38.86 Lon: 143.51 Height: 82.0 m
Data from the previous 72 hours. | See also: Recent months at Cape Otway
Date/Time
EST
Temp
°C
Wind Pressure Rain since
9am
mm
Weather Cloud Vis
km
Sea
Height
m
Swell
Dir  Spd
kts
Gust
kts
hPa Trend Height
m
Period
s
Dir
17/07:00pm 7.8 NNW 10 15 1000.4 - 7.6 - - - - - - -
17/06:38pm 8.4 WNW 15 21 1000.4 - 7.6 - - - - - - -
17/06:30pm 8.3 W 21 35 1000.3 - 7.6 - - - - - - -
17/06:19pm 10.4 W 18 35 999.9 - 7.0 - - - - - - -
17/06:00pm 9.7 W 15 20 999.5 - 7.0 Recent precip. - - - - - -
17/05:30pm 8.7 W 20 33 1000.0 - 7.0 - - - - - - -
17/05:20pm 9.3 W 21 39 999.7 - 6.8 - - - - - - -
17/05:18pm 9.6 W 19 39 999.3 - 6.8 - - - - - - -
17/05:00pm 9.9 W 20 33 999.2 - 6.6 - - - - - - -
17/04:30pm 10.0 W 21 32 999.2 - 6.6 - - - - - - -
17/04:12pm 10.4 W 22 33 999.0 - 6.6 - - - - - - -
17/04:00pm 9.8 W 20 27 999.0 - 6.6 - - - - - - -
17/03:30pm 9.6 WNW 23 37 998.8 - 5.0 - - - - - - -
17/03:09pm 9.7 WNW 20 30 998.9 - 4.6 - - - - - - -
17/03:00pm 9.3 WNW 22 30 998.9 - 4.6 Recent precip. - - - - - -
17/02:30pm 9.0 WNW 26 37 999.0 - 4.4 - - - - - - -
17/02:02pm 9.5 WNW 23 35 998.3 - 3.2 - - - - - - -
17/02:00pm 9.8 WNW 22 35 998.3 - 3.0 - - - - - - -
17/01:39pm 10.3 WNW 17 27 998.0 - 2.2 - - - - - - -
17/01:30pm 10.8 WNW 18 27 998.3 - 2.0 - - - - - - -
17/01:02pm 10.9 WNW 17 28 998.6 - 2.0 - - - - - - -
17/01:00pm 10.4 WNW 17 25 998.6 - 2.0 - - - - - - -
17/12:32pm 9.1 NW 15 25 998.9 - 2.0 - - - - - - -
17/12:30pm 9.0 NW 16 25 999.0 - 2.0 - - - - - - -
17/12:09pm 8.7 WNW 17 28 999.1 - 2.0 - - - - - - -
17/12:00pm 9.0 WNW 20 26 999.2 - 2.0 Recent precip. - - - - - -
17/11:40am 7.2 W 29 45 999.2 - 2.0 - - - - - - -
17/11:33am 8.3 WNW 24 45 999.2 - 0.2 - - - - - - -
17/11:30am 10.9 WNW 20 38 998.9 - 0.0 - - - - - - -
17/11:00am 11.3 WNW 20 30 998.9 - 0.0 - - - - - - -
17/10:30am 10.3 NW 18 32 998.5 - 0.0 - - - - - - -
17/10:09am 10.4 NW 16 29 998.4 - 0.0 - - - - - - -
17/10:00am 10.4 NW 14 22 998.5 - 0.0 - - - - - - -
17/09:36am 9.4 NW 15 26 998.7 - 0.0 - - - - - - -
17/09:30am 9.5 NW 15 21 998.8 - 0.0 - - - - - - -
17/09:00am 8.9 NW 14 24 998.7 - 29.4 Recent precip. - - - - - -
17/08:30am 8.7 NW 12 19 999.1 - 29.4 - - - - - - -
17/08:00am 8.6 NW 14 23 999.1 - 29.0 - - - - - - -
17/07:40am 8.4 WNW 17 27 999.3 - 28.2 - - - - - - -
17/07:30am 8.9 WNW 20 27 999.5 - 27.6 - - - - - - -
17/07:00am 9.1 NW 16 30 999.2 - 25.6 - - - - - - -
17/06:58am 8.9 NW 15 25 999.2 - 25.6 - - - - - - -
17/06:30am 9.0 NW 15 24 997.9 - 25.6 - - - - - - -
17/06:00am 8.7 NW 13 21 999.1 - 23.8 Rain - - - - - -
17/05:30am 9.5 WNW 13 19 998.6 - 21.0 - - - - - - -
17/05:13am 9.7 W 15 26 998.8 - 20.2 - - - - - - -
17/05:00am 9.3 WNW 14 22 998.5 - 19.6 - - - - - - -
17/04:31am 9.6 WNW 15 26 998.4 - 17.2 - - - - - - -
17/04:30am 9.6 WNW 14 24 998.4 - 17.2 - - - - - - -
17/04:00am 9.3 NW 14 23 998.3 - 16.2 - - - - - - -
17/03:30am 9.2 WNW 18 32 998.4 - 14.8 - - - - - - -
17/03:00am 9.4 WNW 17 27 998.3 - 14.4 Rain - - - - - -
17/02:30am 10.2 NW 19 30 998.4 - 13.2 - - - - - - -
17/02:00am 10.4 NW 19 29 998.3 - 13.0 - - - - - - -
17/01:30am 10.5 NW 21 33 998.2 - 12.8 - - - - - - -
17/01:00am 10.2 NW 17 28 998.1 - 12.8 - - - - - - -
17/12:32am 10.1 NW 18 28 998.3 - 12.8 - - - - - - -
17/12:30am 10.1 NW 18 26 998.3 - 12.8 - - - - - - -
17/12:07am 9.8 NW 18 28 998.3 - 12.8 - - - - - - -
17/12:00am 9.8 NW 17 26 998.5 - 12.8 - - - - - - -
 
Date/Time
EST
Temp
°C
Wind Pressure Rain since
9am
mm
Weather Cloud Vis
km
Sea
Height
m
Swell
Dir  Spd
kts
Gust
kts
hPa Trend Height
m
Period
s
Dir
16/11:30pm 9.7 WNW 19 30 998.6 - 12.8 - - - - - - -
16/11:05pm 9.5 WNW 19 30 999.0 - 12.8 - - - - - - -
16/11:00pm 9.5 WNW 19 28 999.1 - 12.8 - - - - - - -
16/10:52pm 9.8 WNW 23 39 999.1 - 12.8 - - - - - - -
16/10:42pm 9.9 WNW 27 40 999.3 - 12.4 - - - - - - -
16/10:41pm 10.0 WNW 26 40 999.2 - 12.4 - - - - - - -
16/10:30pm 9.8 WNW 20 31 999.4 - 11.8 - - - - - - -
16/10:12pm 9.9 WNW 15 25 999.0 - 10.4 - - - - - - -
16/10:00pm 10.0 WNW 18 27 999.2 - 9.0 - - - - - - -
16/09:36pm 10.0 NW 17 31 999.2 - 7.4 - - - - - - -
16/09:30pm 10.3 NNW 17 25 999.0 - 6.8 - - - - - - -
16/09:00pm 10.7 NW 15 25 998.7 - 6.6 - - - - - - -
16/08:35pm 10.5 NW 15 26 998.7 - 6.6 - - - - - - -
16/08:30pm 10.7 NW 15 24 998.8 - 6.6 - - - - - - -
16/08:00pm 10.5 NW 17 29 998.8 - 6.6 - - - - - - -
16/07:31pm 10.9 NW 17 28 998.9 - 5.4 - - - - - - -
16/07:30pm 10.9 NW 17 25 998.9 - 5.4 - - - - - - -
16/07:00pm 11.1 NW 15 26 998.3 - 5.2 - - - - - - -
16/06:30pm 11.8 WNW 21 31 997.7 - 5.0 - - - - - - -
16/06:00pm 11.8 WNW 20 32 997.7 - 5.0 Recent precip. - - - - - -
16/05:30pm 12.1 WNW 20 32 997.4 - 4.8 - - - - - - -
16/05:00pm 11.6 WNW 19 30 997.3 - 4.8 - - - - - - -
16/04:30pm 10.3 W 29 43 996.7 - 4.6 - - - - - - -
16/04:00pm 13.2 WNW 25 39 996.6 - 3.0 - - - - - - -
16/03:30pm 13.1 WNW 28 40 996.0 - 3.0 - - - - - - -
16/03:00pm 12.7 WNW 28 39 995.9 - 3.0 - - - - - - -
16/02:30pm 12.5 WNW 28 41 995.7 - 3.0 - - - - - - -
16/02:00pm 12.4 WNW 27 37 995.7 - 3.0 - - - - - - -
16/01:30pm 12.1 WNW 29 42 995.4 - 3.0 - - - - - - -
16/01:00pm 12.6 WNW 31 42 995.3 - 3.0 - - - - - - -
16/12:30pm 12.3 WNW 27 41 994.9 - 3.0 - - - - - - -
16/12:00pm 9.7 W 30 48 995.1 - 3.0 Rain - - - - - -
16/11:30am 11.5 WNW 27 39 995.2 - 2.6 - - - - - - -
16/11:00am 10.8 W 26 43 994.7 - 1.8 - - - - - - -
16/10:46am 9.9 WNW 26 38 994.6 - 1.4 - - - - - - -
16/10:44am 9.9 WNW 25 38 994.7 - 1.4 - - - - - - -
16/10:30am 10.4 WNW 21 33 994.5 - 1.4 - - - - - - -
16/10:00am 10.6 NW 19 30 994.3 - 1.0 - - - - - - -
16/09:30am 11.1 W 27 49 994.0 - 0.0 - - - - - - -
16/09:29am 11.7 W 27 49 993.6 - 0.0 - - - - - - -
16/09:00am 11.2 W 28 39 993.5 - 26.6 Recent precip. - - - - - -
16/08:30am 11.3 W 29 42 993.0 - 26.2 - - - - - - -
16/08:00am 11.8 W 29 45 992.3 - 26.2 - - - - - - -
16/07:30am 9.5 W 26 39 992.0 - 26.2 - - - - - - -
16/07:18am 8.6 W 33 52 991.6 - 26.2 - - - - - - -
16/07:09am 8.6 W 31 52 991.3 - 25.2 - - - - - - -
16/07:08am 8.9 W 30 48 991.2 - 24.2 - - - - - - -
16/07:00am 11.8 W 28 39 991.2 - 23.0 - - - - - - -
16/06:30am 9.8 W 34 51 990.4 - 23.0 - - - - - - -
16/06:24am 10.9 W 30 51 990.0 - 21.8 - - - - - - -
16/06:00am 10.3 WNW 23 35 989.9 - 21.4 Recent precip. - - - - - -
16/05:30am 10.9 NW 20 31 989.4 - 20.8 - - - - - - -
16/05:00am 11.1 NW 21 33 988.7 - 20.8 - - - - - - -
16/04:30am 10.8 NW 19 33 988.8 - 20.8 - - - - - - -
16/04:02am 10.8 NW 16 28 989.7 - 20.8 - - - - - - -
16/04:00am 10.8 NW 16 25 989.7 - 20.8 - - - - - - -
16/03:31am 11.0 NW 17 27 990.0 - 20.8 - - - - - - -
16/03:30am 11.1 NW 17 26 990.0 - 20.8 - - - - - - -
16/03:00am 11.3 NW 18 29 990.3 - 20.8 - - - - - - -
16/02:30am 11.4 NW 18 29 990.6 - 20.8 - - - - - - -
16/02:00am 11.3 NW 17 28 990.8 - 20.8 - - - - - - -
16/01:30am 11.0 NW 17 29 991.5 - 20.8 - - - - - - -
16/01:00am 11.1 NW 15 25 992.0 - 20.8 - - - - - - -
16/12:54am 11.1 NW 15 25 992.2 - 20.8 - - - - - - -
16/12:30am 10.8 NW 13 20 992.5 - 20.8 - - - - - - -
16/12:00am 10.9 NW 14 23 993.1 - 20.8 - - - - - - -
 
Date/Time
EST
Temp
°C
Wind Pressure Rain since
9am
mm
Weather Cloud Vis
km
Sea
Height
m
Swell
Dir  Spd
kts
Gust
kts
hPa Trend Height
m
Period
s
Dir
15/11:30pm 11.0 NW 12 21 993.4 - 20.8 - - - - - - -
15/11:00pm 11.4 WNW 14 19 994.0 - 20.8 - - - - - - -
15/10:30pm 11.8 NW 13 24 994.4 - 19.8 - - - - - - -
15/10:00pm 11.8 NW 13 22 994.6 - 19.6 - - - - - - -
15/09:30pm 12.3 NW 13 22 995.0 - 18.8 - - - - - - -
15/09:00pm 12.3 NW 15 24 995.0 - 18.8 Recent precip. - - - - - -
15/08:30pm 12.4 WNW 17 28 995.4 - 18.8 - - - - - - -
15/08:13pm 11.5 WNW 21 31 995.4 - 18.8 - - - - - - -
15/08:00pm 12.5 WNW 19 27 995.6 - 18.4 - - - - - - -
15/07:30pm 12.9 WNW 18 29 995.8 - 17.2 - - - - - - -
15/07:00pm 13.1 WNW 15 23 995.6 - 15.4 - - - - - - -
15/06:36pm 13.1 WNW 17 27 995.6 - 15.0 - - - - - - -
15/06:30pm 13.1 WNW 20 27 995.6 - 14.6 - - - - - - -
15/06:00pm 13.5 W 19 29 995.0 - 6.4 Rain - - - - - -
15/05:51pm 14.3 WNW 17 28 995.3 - 0.8 - - - - - - -
15/05:30pm 15.7 NW 14 23 994.9 - 0.8 - - - - - - -
15/05:04pm 16.1 NW 15 27 994.8 - 0.8 - - - - - - -
15/05:00pm 16.0 NW 15 23 995.0 - 0.8 - - - - - - -
15/04:30pm 16.1 NW 13 20 995.5 - 0.8 - - - - - - -
15/04:00pm 16.2 NW 13 19 995.4 - 0.8 - - - - - - -
15/03:30pm 16.4 NW 14 21 996.0 - 0.8 - - - - - - -
15/03:00pm 16.0 NW 13 22 996.2 - 0.8 - - - - - - -
15/02:47pm 16.2 NW 15 25 996.0 - 0.8 - - - - - - -
15/02:30pm 16.2 NW 16 24 996.2 - 0.8 - - - - - - -
15/02:09pm 15.8 NW 15 27 996.3 - 0.8 - - - - - - -
15/02:00pm 15.5 NW 14 22 996.5 - 0.8 - - - - - - -
15/01:30pm 15.5 NW 16 26 997.0 - 0.6 - - - - - - -
15/01:28pm 15.6 NW 15 26 997.1 - 0.6 - - - - - - -
15/01:00pm 16.3 NW 13 24 997.5 - 0.2 - - - - - - -
15/12:30pm 16.6 NW 17 33 998.2 - 0.0 - - - - - - -
15/12:00pm 16.2 NW 15 28 998.2 - 0.0 - - - - - - -
15/11:30am 16.3 NNW 18 28 998.3 - 0.0 - - - - - - -
15/11:02am 15.7 NNW 19 31 998.7 - 0.0 - - - - - - -
15/11:00am 15.6 NNW 19 28 998.8 - 0.0 - - - - - - -
15/10:30am 15.4 NNW 19 31 998.9 - 0.0 - - - - - - -
15/10:00am 15.4 NNW 21 32 999.5 - 0.0 - - - - - - -
15/09:30am 15.8 N 19 31 999.6 - 0.0 - - - - - - -
15/09:17am 15.9 N 17 27 999.6 - 0.0 - - - - - - -
15/09:00am 15.3 N 18 27 999.8 - 0.2 - - - - - - -
15/08:34am 14.9 N 16 26 1000.3 - 0.2 - - - - - - -
15/08:30am 14.5 N 17 26 1000.4 - 0.2 - - - - - - -
15/08:20am 14.2 N 16 26 1000.4 - 0.2 - - - - - - -
15/08:00am 13.6 N 16 25 1001.7 - 0.2 - - - - - - -
15/07:30am 14.0 N 15 21 1001.9 - 0.0 - - - - - - -
15/07:00am 13.8 N 15 21 1001.6 - 0.0 - - - - - - -
15/06:30am 13.9 N 16 25 1003.0 - 0.0 - - - - - - -
15/06:24am 14.0 N 15 25 1003.2 - 0.0 - - - - - - -
15/06:00am 14.1 N 15 23 1003.2 - 0.0 - - - - - - -
15/05:52am 14.1 N 16 26 1003.5 - 0.0 - - - - - - -
15/05:30am 14.1 N 15 21 1003.4 - 0.0 - - - - - - -
15/05:00am 13.6 N 13 19 1004.1 - 0.0 - - - - - - -
15/04:30am 13.3 N 13 19 1004.6 - 0.0 - - - - - - -
15/04:00am 13.2 NNE 12 17 1005.0 - 0.0 - - - - - - -
15/03:30am 12.9 N 12 16 1005.8 - 0.0 - - - - - - -
15/03:00am 12.7 N 13 19 1006.7 - 0.0 - - - - - - -
15/02:30am 12.4 N 14 19 1007.3 - 0.0 - - - - - - -
15/02:00am 12.2 N 12 18 1007.9 - 0.0 - - - - - - -
15/01:30am 12.1 N 9 12 1008.5 - 0.0 - - - - - - -
15/01:00am 12.5 N 10 13 1009.1 - 0.0 - - - - - - -
15/12:30am 12.5 NNE 10 13 1009.7 - 0.0 - - - - - - -
15/12:00am 11.9 N 10 12 1010.2 - 0.0 - - - - - - -
 
Date/Time
EST
Temp
°C
Wind Pressure Rain since
9am
mm
Weather Cloud Vis
km
Sea
Height
m
Swell
Dir  Spd
kts
Gust
kts
hPa Trend Height
m
Period
s
Dir
14/11:30pm 10.1 NNW 4 6 1010.7 - 0.0 - - - - - - -
14/11:00pm 11.4 NE 8 9 1011.2 - 0.0 - - - - - - -
14/10:30pm 9.7 NNE 5 6 1011.5 - 0.0 - - - - - - -
14/10:00pm 9.7 N 8 9 1012.2 - 0.0 - - - - - - -
14/09:30pm 9.6 N 7 8 1012.5 - 0.0 - - - - - - -
14/09:00pm 10.0 NNW 7 8 1012.7 - 0.0 - - - - - - -
14/08:30pm 10.2 NNW 7 7 1012.7 - 0.0 - - - - - - -
14/08:00pm 10.4 NNW 7 7 1012.9 - 0.0 - - - - - - -
14/07:30pm 11.0 NNW 7 8 1013.0 - 0.0 - - - - - - -

Other Formats:

Comma delimited format used in spreadsheet applications
http://www.bom.gov.au/fwo/IDV60701/IDV60701.94842.axf

JavaScript Object Notation format (JSON) in row-major order
http://www.bom.gov.au/fwo/IDV60701/IDV60701.94842.json